首页
METAR-TAF:

METAR-TAF

机场 :

奥古斯塔, 喬治亞, 美国

纬度: 33-21-52N, 经度: 081-57-48W, 海拔: 44米

当前天气观测

该预报发布于38分钟前的12:53 UTC
风速4节,风向西南
温度 25°C
湿度 94%
气压 1017 hPa
能見度: 16.1公里
多云层高于800英尺
多云层高于6000英尺

METAR: KAGS 171253Z 23004KT 10SM BKN008 BKN060 25/24 A3003 RMK AO2 SLP167 T02500239

时间: 09:31 (13:31 UTC)

预报

该预报发布于2小时和0分钟前的11:31 UTC
预报有效从17日的 12点(UTC)到 18日的 12点(UTC)
风速3节,风向多变
能見度: 6.4公里
阴天层高于500英尺
轻雾
从 17日的 1400点(UTC)
风速6节,风向西南
能見度: 10公里
散云层高于700英尺
多云层高于1500英尺
从 17日的 1600点(UTC)
风速8节,风向西转西南
能見度: 10公里
多云层高于3500英尺
从 17日的 1900点(UTC)
风速10节,风向西转西南
能見度: 10公里
散云层高于5000英尺, 积雨云.
附近有雷暴
从 18日的 0000点(UTC)
风速5节,风向西南
能見度: 10公里
多云层高于5000英尺

TAF: KAGS 171131Z 1712/1812 VRB03KT 4SM BR OVC005 FM171400 23006KT P6SM SCT007 BKN015 FM171600 24008KT P6SM BKN035 FM171900 24010KT P6SM VCTS SCT050CB FM180000 22005KT P6SM BKN050

超过4000个机场的气象观测和天气预报(METAR&TAF报告)。

可查询的气象台以黄色和红色小点在地图上表示。

将鼠标移到小点上方,可查看气象台名称。

然后点击查看天气观测和预报。

如需切换地图:点击带黑十字的绿色按钮放大地图;点击带横线的绿色按钮缩小地图;或者点击绿色箭头查看邻近地区的地图。


METAR-TAF: